LGAVHEMM

Guest
Details From LGAV - Athens Intl Airport Elefterios Venizel
To HEMM - MERSA MATRUH
Flight Number -
Tags decoded
Created
Modified
Stats Distance 486 nm / 901 km
Max Altitude 0 ft / 0 m
Waypoints 7
Social Downloads 0
Likes 0
Share VATSIM

Download

Looking for another format? Having issues loading an existing format? Contact us
Advertisement - Login to hide

Notes

Requested: LGAV KEA SOREV MIL SIT GESAD HEMM

Route

LGAV KEA SOREV MIL SIT GESAD HEMM

ID Type Via Altitude Latitude Longitude Leg Dist Tot Dist Heading (true) Name
O LGAV APT - 0 ft / 0 m 37.93636˚ 23.94447˚ - 0 nm - Athens Intl Airport Elefterios Venizel
KEA VOR - 0 ft / 0 m 37.55719˚ 24.29783˚ 28 nm 28 nm 144° / 144° KEA VOR-DME
SOREV FIX - 0 ft / 0 m 37.09694˚ 24.42444˚ 28 nm 56 nm 168° / 168° -
MIL VOR - 0 ft / 0 m 36.74752˚ 24.51945˚ 21 nm 78 nm 168° / 168° MILOS VOR-DME
SIT VOR - 0 ft / 0 m 35.06842˚ 26.18906˚ 129 nm 207 nm 141° / 142° SITIA VOR-DME
GESAD FIX - 0 ft / 0 m 32.94472˚ 28.33500˚ 166 nm 373 nm 139° / 141° -
O HEMM APT - 0 ft / 0 m 31.32707˚ 27.22510˚ 112 nm 486 nm 210° / 210° MERSA MATRUH

Altitude Profile

Advertisement - Login to hide

Weather


0- 5 10 15 20 25 30 35+ Temperature / ° C

Clouds and Precipitation
Forecast for 2017-12-13 00:00 UTC. Updated an hour ago

Ground ~20,000 ft ~40,000 ft Winds

LGAV

Details ICAO LGAV (ATH)
Name Athens Intl Airport Elefterios Venizel
Region Greece
Timezone Europe/Athens (UTC+2.0)
Stats Elevation 308 ft / 94 m (AMSL)
Location 37.936357° 23.944470°
Runways 2
Magnetic Variation 4.484° E

METAR

LGAV 122020Z VRB02KT 9999 FEW030 12/08 Q1023 NOSIG

Decode

TAF

TAF TAF LGAV 121700Z 1218/1318 20010KT 9999 FEW035 PROB30 1300/1304 5000 BR SCT012

Decode

Departure Runways

ID Width Length Bearing (true) Bearing (mag) Surface Threshold Offset Overrun Length
03L 148 ft / 45 m 12,474 ft / 3,802 m 36.51° 32.03° Asphalt 984 ft / 300 m 393 ft / 120 m
03R 148 ft / 45 m 13,131 ft / 4,002 m 36.52° 32.04° Asphalt 984 ft / 300 m 393 ft / 120 m
21L 148 ft / 45 m 13,131 ft / 4,002 m 216.54° 212.06° Asphalt 984 ft / 300 m 393 ft / 120 m
21R 148 ft / 45 m 12,474 ft / 3,802 m 216.53° 212.05° Asphalt 984 ft / 300 m 393 ft / 120 m

HEMM

Details ICAO HEMM (MUH)
Name MERSA MATRUH
Region Egypt
Timezone Africa/Cairo (UTC+2.0)
Stats Elevation 94 ft / 29 m (AMSL)
Location 31.327068° 27.225097°
Runways 2
Magnetic Variation 4.232° E

METAR

HEMM 122000Z 36005KT 9999 FEW020 19/14 Q1024 NOSIG

Decode

TAF

Not found

Destination Runways

ID Width Length Bearing (true) Bearing (mag) Surface Threshold Offset Overrun Length
06 148 ft / 45 m 9,826 ft / 2,995 m 59.88° 55.65° Asphalt 160 ft / 49 m 0 ft / 0 m
15 148 ft / 45 m 9,871 ft / 3,009 m 149.80° 145.57° Asphalt 0 ft / 0 m 80 ft / 24 m
24 148 ft / 45 m 9,826 ft / 2,995 m 239.90° 235.67° Asphalt 160 ft / 49 m 0 ft / 0 m
33 148 ft / 45 m 9,871 ft / 3,009 m 329.81° 325.58° Asphalt 0 ft / 0 m 0 ft / 0 m

Popular Alternatives